createdAt,value
2023-02-18T00:00:45.222Z,3.70
2023-02-18T00:03:18.540Z,3.62
2023-02-18T00:05:51.829Z,3.46
2023-02-18T00:08:26.688Z,3.60
2023-02-18T00:11:00.236Z,3.57
2023-02-18T00:13:34.220Z,3.64
2023-02-18T00:16:09.998Z,3.55
2023-02-18T00:18:44.103Z,3.56
2023-02-18T00:21:17.576Z,3.49
2023-02-18T00:23:52.168Z,3.46
2023-02-18T00:26:25.956Z,3.49
2023-02-18T00:28:59.310Z,3.51
2023-02-18T00:31:34.939Z,3.46
2023-02-18T00:34:08.245Z,3.54
2023-02-18T00:36:42.024Z,3.52
2023-02-18T00:39:16.608Z,3.48
2023-02-18T00:41:50.523Z,3.37
2023-02-18T00:44:24.060Z,3.31
2023-02-18T00:46:57.413Z,3.24
2023-02-18T00:49:31.272Z,3.31
2023-02-18T00:52:04.992Z,3.34
2023-02-18T00:54:39.477Z,3.35
2023-02-18T00:57:12.753Z,3.18
2023-02-18T00:59:46.484Z,3.30
2023-02-18T01:02:19.923Z,3.25
2023-02-18T01:04:53.154Z,3.05
2023-02-18T01:07:26.455Z,3.17
2023-02-18T01:10:01.486Z,3.14
2023-02-18T01:12:35.394Z,3.09
2023-02-18T01:15:10.368Z,3.11
2023-02-18T01:17:44.326Z,3.19
2023-02-18T01:20:17.866Z,3.09
2023-02-18T01:22:51.205Z,3.07
2023-02-18T01:25:25.761Z,3.13
2023-02-18T01:27:59.379Z,3.07
2023-02-18T01:30:33.335Z,2.93
2023-02-18T01:33:07.365Z,2.91
2023-02-18T01:35:41.796Z,2.89
2023-02-18T01:38:15.228Z,2.83
2023-02-18T01:40:53.299Z,2.83
2023-02-18T01:43:26.497Z,2.94
2023-02-18T01:46:15.594Z,2.86
2023-02-18T01:48:52.826Z,2.96
2023-02-18T01:51:29.744Z,2.66
2023-02-18T01:54:05.844Z,2.94
2023-02-18T01:56:43.820Z,2.82
2023-02-18T01:59:24.499Z,2.93
2023-02-18T02:01:58.739Z,2.60
2023-02-18T02:04:32.066Z,2.75
2023-02-18T02:07:06.253Z,2.81
2023-02-18T02:09:42.490Z,2.88
2023-02-18T02:12:37.470Z,2.78
2023-02-18T02:15:26.510Z,2.63
2023-02-18T02:18:13.682Z,2.76
2023-02-18T02:21:31.257Z,2.81
2023-02-18T02:24:39.270Z,2.60
2023-02-18T02:27:23.247Z,2.64
2023-02-18T02:30:31.366Z,2.71
2023-02-18T02:33:35.217Z,2.46
2023-02-18T02:36:15.371Z,2.62
2023-02-18T02:38:57.562Z,2.58
2023-02-18T02:41:46.648Z,2.60
2023-02-18T02:44:24.329Z,2.63
2023-02-18T02:47:03.380Z,2.54
2023-02-18T02:49:45.977Z,2.60
2023-02-18T02:52:24.365Z,2.70
2023-02-18T02:54:57.692Z,2.58
2023-02-18T02:57:43.284Z,2.62
2023-02-18T03:00:19.859Z,2.66
2023-02-18T03:03:06.509Z,2.47
2023-02-18T03:05:52.133Z,2.47
2023-02-18T03:08:36.043Z,2.58
2023-02-18T03:11:12.577Z,2.41
2023-02-18T03:14:03.794Z,2.46
2023-02-18T03:16:48.242Z,2.55
2023-02-18T03:19:23.991Z,2.58
2023-02-18T03:22:01.249Z,2.55
2023-02-18T03:24:39.372Z,2.52
2023-02-18T03:27:17.681Z,2.54
2023-02-18T03:29:57.416Z,2.38
2023-02-18T03:32:33.061Z,2.41
2023-02-18T03:35:11.425Z,2.52
2023-02-18T03:37:49.514Z,2.56
2023-02-18T03:40:24.293Z,2.31
2023-02-18T03:42:58.722Z,2.37
2023-02-18T03:45:32.024Z,2.38
2023-02-18T03:48:05.850Z,2.36
2023-02-18T03:50:38.814Z,2.46
2023-02-18T03:53:12.482Z,2.28
2023-02-18T03:55:47.235Z,2.41
2023-02-18T03:58:20.735Z,2.48
2023-02-18T04:00:54.380Z,2.45
2023-02-18T04:03:27.645Z,2.49
2023-02-18T04:06:00.938Z,2.38
2023-02-18T04:08:34.189Z,2.52
2023-02-18T04:11:08.922Z,2.55
2023-02-18T04:13:42.778Z,2.37
2023-02-18T04:16:16.816Z,2.36
2023-02-18T04:18:50.242Z,2.51
2023-02-18T04:21:23.759Z,2.37
2023-02-18T04:23:57.034Z,2.14
2023-02-18T04:26:31.714Z,2.22
2023-02-18T04:29:05.128Z,2.44
2023-02-18T04:31:38.651Z,2.37
2023-02-18T04:34:12.067Z,2.24
2023-02-18T04:36:45.435Z,2.40
2023-02-18T04:39:18.644Z,2.38
2023-02-18T04:41:53.680Z,2.50
2023-02-18T04:44:26.954Z,2.54
2023-02-18T04:47:00.558Z,2.35
2023-02-18T04:49:34.301Z,2.22
2023-02-18T04:52:07.908Z,2.21
2023-02-18T04:54:42.170Z,2.31
2023-02-18T04:57:17.014Z,2.35
2023-02-18T04:59:50.210Z,2.42
2023-02-18T05:02:23.453Z,2.34
2023-02-18T05:04:56.789Z,2.21
2023-02-18T05:07:30.327Z,2.25
2023-02-18T05:10:05.281Z,2.18
2023-02-18T05:12:40.424Z,2.26
2023-02-18T05:15:14.112Z,2.32
2023-02-18T05:17:48.737Z,2.35
2023-02-18T05:20:22.336Z,2.25
2023-02-18T05:22:55.654Z,2.18
2023-02-18T05:25:29.246Z,1.99
2023-02-18T05:28:03.820Z,2.12
2023-02-18T05:30:37.193Z,2.21
2023-02-18T05:33:10.635Z,2.36
2023-02-18T05:35:43.998Z,2.28
2023-02-18T05:38:17.370Z,2.31
2023-02-18T05:40:50.899Z,2.30
2023-02-18T05:43:25.692Z,2.29
2023-02-18T05:45:58.978Z,2.40
2023-02-18T05:48:32.244Z,2.32
2023-02-18T05:51:06.273Z,2.41
2023-02-18T05:53:39.308Z,2.57
2023-02-18T05:56:13.224Z,2.73
2023-02-18T05:58:48.331Z,2.76
2023-02-18T06:01:21.620Z,2.88
2023-02-18T06:03:54.949Z,2.63
2023-02-18T06:06:28.520Z,2.94
2023-02-18T06:09:02.163Z,3.08
2023-02-18T06:11:36.043Z,3.13
2023-02-18T06:14:11.094Z,3.13
2023-02-18T06:16:44.555Z,3.11
2023-02-18T06:19:18.076Z,3.34
2023-02-18T06:21:51.440Z,3.28
2023-02-18T06:24:26.165Z,3.35
2023-02-18T06:26:59.420Z,3.55
2023-02-18T06:29:36.001Z,3.63
2023-02-18T06:32:09.566Z,3.64
2023-02-18T06:34:43.209Z,3.72
2023-02-18T06:37:16.776Z,3.77
2023-02-18T06:39:50.204Z,3.83
2023-02-18T06:42:23.639Z,3.89
2023-02-18T06:44:58.496Z,4.00
2023-02-18T06:47:31.778Z,4.09
2023-02-18T06:50:05.514Z,4.16
2023-02-18T06:52:39.178Z,4.19
2023-02-18T06:55:12.898Z,4.27
2023-02-18T06:57:46.431Z,4.04
2023-02-18T07:00:22.905Z,4.45
2023-02-18T07:02:56.269Z,4.51
2023-02-18T07:05:30.029Z,4.59
2023-02-18T07:08:03.406Z,4.58
2023-02-18T07:10:36.924Z,4.61
2023-02-18T07:13:10.976Z,4.86
2023-02-18T07:15:46.512Z,4.93
2023-02-18T07:18:20.499Z,4.93
2023-02-18T07:20:53.762Z,5.15
2023-02-18T07:23:27.241Z,5.25
2023-02-18T07:26:06.034Z,5.38
2023-02-18T07:28:39.823Z,5.49
2023-02-18T07:31:15.090Z,5.61
2023-02-18T07:33:48.399Z,5.70
2023-02-18T07:36:21.819Z,5.47
2023-02-18T07:38:55.026Z,5.82
2023-02-18T07:41:28.295Z,5.92
2023-02-18T07:44:01.691Z,5.94
2023-02-18T07:46:40.541Z,6.03
2023-02-18T07:49:13.924Z,6.06
2023-02-18T07:51:48.745Z,6.10
2023-02-18T07:54:22.382Z,6.12
2023-02-18T07:56:55.972Z,6.16
2023-02-18T07:59:29.685Z,6.25
2023-02-18T08:02:05.531Z,6.36
2023-02-18T08:04:38.820Z,6.25
2023-02-18T08:07:14.855Z,6.60
2023-02-18T08:09:49.163Z,6.66
2023-02-18T08:12:23.401Z,6.85
2023-02-18T08:14:56.988Z,7.00
2023-02-18T08:17:32.067Z,7.12
2023-02-18T08:20:06.325Z,7.25
2023-02-18T08:22:39.890Z,7.32
2023-02-18T08:25:27.540Z,7.25
2023-02-18T08:28:02.367Z,7.31
2023-02-18T08:30:35.810Z,7.42
2023-02-18T08:33:10.831Z,7.60
2023-02-18T08:35:45.066Z,7.83
2023-02-18T08:38:18.373Z,7.92
2023-02-18T08:40:52.720Z,8.21
2023-02-18T08:43:26.416Z,8.49
2023-02-18T08:46:00.468Z,8.77
2023-02-18T08:48:34.840Z,8.86
2023-02-18T08:51:16.762Z,9.00
2023-02-18T08:53:50.699Z,9.17
2023-02-18T08:56:24.521Z,9.35
2023-02-18T08:58:57.749Z,9.28
2023-02-18T09:01:31.507Z,9.27
2023-02-18T09:04:06.513Z,9.37
2023-02-18T09:06:40.059Z,9.44
2023-02-18T09:09:13.291Z,9.24
2023-02-18T09:11:47.563Z,9.36
2023-02-18T09:14:21.744Z,9.21
2023-02-18T09:16:55.282Z,9.17
2023-02-18T09:19:29.950Z,9.19
2023-02-18T09:22:03.179Z,9.15
2023-02-18T09:24:38.664Z,9.16
2023-02-18T09:27:12.439Z,9.13
2023-02-18T09:29:45.813Z,9.44
2023-02-18T09:32:32.381Z,9.38
2023-02-18T09:35:09.578Z,9.46
2023-02-18T09:37:43.200Z,9.44
2023-02-18T09:40:27.291Z,9.45
2023-02-18T09:43:01.779Z,9.40
2023-02-18T09:45:35.452Z,9.46
2023-02-18T09:48:10.882Z,9.56
2023-02-18T09:50:49.174Z,9.70
2023-02-18T09:53:23.619Z,9.85
2023-02-18T09:55:58.604Z,9.83
2023-02-18T09:58:34.708Z,10.07
2023-02-18T10:01:16.814Z,10.26
2023-02-18T10:03:50.581Z,10.67
2023-02-18T10:06:28.380Z,10.90
2023-02-18T10:09:04.980Z,10.79
2023-02-18T10:11:41.945Z,10.91
2023-02-18T10:14:16.992Z,11.02
2023-02-18T10:16:53.842Z,10.94
2023-02-18T10:19:35.716Z,10.90
2023-02-18T10:22:15.170Z,10.79
2023-02-18T10:24:52.706Z,10.87
2023-02-18T10:27:28.139Z,11.12
2023-02-18T10:30:13.962Z,10.99
2023-02-18T10:32:48.664Z,10.93
2023-02-18T10:35:26.500Z,11.10
2023-02-18T10:38:11.799Z,11.18
2023-02-18T10:40:55.441Z,11.37
2023-02-18T10:43:37.691Z,11.57
2023-02-18T10:46:18.702Z,11.40
2023-02-18T10:49:04.606Z,11.24
2023-02-18T10:51:41.198Z,11.39
2023-02-18T10:54:17.036Z,11.24
2023-02-18T10:56:51.808Z,11.18
2023-02-18T10:59:28.424Z,11.23
2023-02-18T11:02:05.203Z,11.14
2023-02-18T11:04:41.130Z,11.19
2023-02-18T11:07:20.300Z,11.21
2023-02-18T11:09:57.042Z,11.55
2023-02-18T11:12:41.220Z,11.86
2023-02-18T11:15:19.365Z,12.09
2023-02-18T11:17:55.308Z,12.26
2023-02-18T11:20:33.622Z,12.96
2023-02-18T11:23:21.819Z,13.13
2023-02-18T11:26:03.434Z,13.23
2023-02-18T11:28:46.184Z,13.25
2023-02-18T11:31:26.641Z,13.47
2023-02-18T11:34:03.946Z,13.47
2023-02-18T11:36:38.808Z,13.72
2023-02-18T11:39:20.829Z,13.78
2023-02-18T11:41:59.398Z,13.90
2023-02-18T11:44:35.701Z,13.89
2023-02-18T11:47:24.697Z,14.53
2023-02-18T11:50:17.636Z,14.85
2023-02-18T11:52:54.008Z,15.10
2023-02-18T11:55:30.605Z,15.12
2023-02-18T11:58:08.681Z,14.91
2023-02-18T12:00:44.418Z,15.30
2023-02-18T12:03:29.730Z,15.19
2023-02-18T12:06:07.048Z,15.00
2023-02-18T12:08:50.098Z,15.25
2023-02-18T12:11:30.038Z,15.21
2023-02-18T12:14:05.017Z,15.21
2023-02-18T12:16:47.097Z,15.27
2023-02-18T12:19:38.430Z,15.14
2023-02-18T12:22:17.731Z,15.18
2023-02-18T12:25:08.811Z,14.90
2023-02-18T12:27:50.453Z,15.44
2023-02-18T12:30:58.291Z,15.58
2023-02-18T12:33:43.690Z,15.58
2023-02-18T12:36:29.234Z,15.40
2023-02-18T12:39:14.938Z,15.53
2023-02-18T12:42:10.534Z,15.27
2023-02-18T12:44:57.780Z,15.15
2023-02-18T12:47:45.274Z,15.43
2023-02-18T12:50:46.787Z,15.58
2023-02-18T12:53:35.204Z,15.75
2023-02-18T12:56:36.379Z,16.32
2023-02-18T12:59:17.508Z,16.43
2023-02-18T13:02:01.951Z,16.40
2023-02-18T13:04:48.229Z,16.45
2023-02-18T13:07:45.473Z,16.53
2023-02-18T13:10:38.094Z,16.61
2023-02-18T13:13:15.673Z,16.62
2023-02-18T13:15:54.334Z,16.47
2023-02-18T13:18:33.979Z,16.57
2023-02-18T13:21:12.167Z,16.31
2023-02-18T13:23:53.076Z,16.32
2023-02-18T13:26:28.072Z,16.47
2023-02-18T13:29:19.296Z,16.23
2023-02-18T13:32:03.373Z,16.31
2023-02-18T13:34:42.982Z,16.21
2023-02-18T13:37:27.917Z,16.12
2023-02-18T13:40:02.558Z,16.27
2023-02-18T13:42:38.809Z,16.18
2023-02-18T13:45:34.011Z,16.52
2023-02-18T13:48:24.190Z,16.36
2023-02-18T13:51:04.671Z,16.46
2023-02-18T13:53:42.830Z,16.67
2023-02-18T13:56:24.013Z,16.76
2023-02-18T13:59:01.972Z,16.87
2023-02-18T14:01:44.389Z,16.62
2023-02-18T14:04:37.577Z,16.75
2023-02-18T14:07:45.461Z,16.88
2023-02-18T14:10:39.595Z,16.87
2023-02-18T14:13:40.259Z,16.95
2023-02-18T14:16:13.817Z,16.97
2023-02-18T14:19:28.194Z,16.95
2023-02-18T14:22:29.179Z,17.02
2023-02-18T14:25:05.678Z,16.69
2023-02-18T14:27:42.110Z,16.51
2023-02-18T14:30:25.344Z,16.58
2023-02-18T14:33:02.071Z,16.66
2023-02-18T14:35:39.857Z,16.58
2023-02-18T14:38:40.500Z,16.64
2023-02-18T14:41:24.088Z,16.69
2023-02-18T14:44:34.059Z,16.44
2023-02-18T14:47:28.965Z,16.38
2023-02-18T14:50:05.132Z,16.63
2023-02-18T14:52:43.952Z,16.58
2023-02-18T14:55:21.844Z,16.53
2023-02-18T14:57:57.444Z,16.62
2023-02-18T15:00:36.522Z,16.31
2023-02-18T15:03:14.885Z,16.31
2023-02-18T15:05:48.457Z,16.07
2023-02-18T15:08:22.921Z,16.23
2023-02-18T15:11:00.886Z,16.06
2023-02-18T15:13:38.317Z,16.17
2023-02-18T15:16:19.826Z,16.14
2023-02-18T15:18:56.954Z,15.80
2023-02-18T15:21:32.769Z,15.95
2023-02-18T15:24:09.470Z,15.79
2023-02-18T15:26:45.872Z,15.28
2023-02-18T15:29:21.523Z,15.30
2023-02-18T15:31:58.987Z,15.11
2023-02-18T15:34:36.768Z,14.80
2023-02-18T15:37:14.092Z,14.49
2023-02-18T15:39:48.157Z,14.30
2023-02-18T15:42:27.989Z,14.20
2023-02-18T15:45:06.593Z,14.00
2023-02-18T15:47:45.314Z,13.83
2023-02-18T15:50:20.707Z,13.63
2023-02-18T15:52:56.365Z,13.50
2023-02-18T15:55:33.329Z,13.31
2023-02-18T15:58:13.083Z,13.17
2023-02-18T16:00:50.372Z,13.18
2023-02-18T16:03:27.239Z,13.06
2023-02-18T16:06:18.915Z,12.95
2023-02-18T16:08:59.247Z,12.77
2023-02-18T16:11:39.511Z,12.63
2023-02-18T16:14:26.247Z,12.58
2023-02-18T16:17:08.488Z,12.63
2023-02-18T16:20:03.465Z,12.54
2023-02-18T16:22:44.152Z,12.48
2023-02-18T16:25:20.316Z,12.50
2023-02-18T16:27:55.925Z,12.45
2023-02-18T16:30:32.596Z,12.39
2023-02-18T16:33:06.001Z,12.30
2023-02-18T16:35:49.418Z,12.12
2023-02-18T16:38:25.492Z,12.16
2023-02-18T16:40:58.885Z,12.18
2023-02-18T16:43:33.266Z,12.01
2023-02-18T16:46:10.465Z,11.98
2023-02-18T16:48:46.489Z,11.96
2023-02-18T16:51:25.129Z,11.87
2023-02-18T16:53:58.600Z,11.84
2023-02-18T16:56:35.526Z,11.77
2023-02-18T16:59:09.203Z,11.77
2023-02-18T17:01:46.088Z,11.73
2023-02-18T17:04:20.490Z,11.75
2023-02-18T17:06:55.420Z,11.67
2023-02-18T17:09:28.770Z,11.58
2023-02-18T17:12:05.274Z,11.53
2023-02-18T17:14:39.130Z,11.47
2023-02-18T17:17:13.967Z,11.39
2023-02-18T17:19:47.379Z,11.31
2023-02-18T17:22:22.282Z,11.22
2023-02-18T17:24:55.550Z,11.14
2023-02-18T17:27:29.108Z,11.09
2023-02-18T17:30:02.601Z,11.01
2023-02-18T17:32:36.298Z,10.95
2023-02-18T17:35:11.260Z,10.88
2023-02-18T17:37:46.130Z,10.82
2023-02-18T17:40:21.726Z,10.75
2023-02-18T17:42:56.606Z,10.70
2023-02-18T17:45:35.132Z,10.61
2023-02-18T17:48:08.551Z,10.60
2023-02-18T17:50:42.783Z,10.59
2023-02-18T17:53:19.211Z,10.38
2023-02-18T17:55:54.430Z,10.45
2023-02-18T17:58:27.805Z,10.37
2023-02-18T18:01:01.361Z,10.30
2023-02-18T18:03:34.699Z,10.36
2023-02-18T18:06:15.557Z,10.28
2023-02-18T18:08:50.847Z,10.25
2023-02-18T18:11:26.331Z,10.18
2023-02-18T18:14:00.562Z,10.09
2023-02-18T18:16:33.872Z,10.09
2023-02-18T18:19:07.400Z,10.04
2023-02-18T18:21:41.451Z,10.05
2023-02-18T18:24:16.348Z,10.01
2023-02-18T18:26:49.730Z,9.99
2023-02-18T18:29:23.008Z,9.91
2023-02-18T18:31:56.655Z,9.83
2023-02-18T18:34:30.341Z,9.78
2023-02-18T18:37:03.494Z,9.74
2023-02-18T18:39:38.298Z,9.67
2023-02-18T18:42:13.568Z,9.63
2023-02-18T18:44:46.832Z,9.62
2023-02-18T18:47:20.196Z,9.56
2023-02-18T18:49:53.787Z,9.55
2023-02-18T18:52:27.375Z,9.51
2023-02-18T18:55:02.196Z,9.46
2023-02-18T18:57:35.920Z,9.45
2023-02-18T19:00:11.472Z,9.46
2023-02-18T19:02:44.647Z,9.42
2023-02-18T19:05:21.981Z,9.37
2023-02-18T19:07:55.629Z,9.35
2023-02-18T19:10:31.129Z,9.31
2023-02-18T19:13:07.814Z,9.30
2023-02-18T19:15:42.533Z,9.26
2023-02-18T19:18:18.129Z,9.18
2023-02-18T19:20:51.590Z,9.21
2023-02-18T19:23:25.359Z,9.16
2023-02-18T19:26:00.654Z,9.14
2023-02-18T19:28:34.422Z,9.10
2023-02-18T19:31:11.689Z,9.08
2023-02-18T19:33:46.997Z,9.05
2023-02-18T19:36:20.341Z,9.00
2023-02-18T19:38:53.710Z,9.01
2023-02-18T19:41:28.736Z,8.93
2023-02-18T19:44:02.166Z,8.89
2023-02-18T19:46:35.358Z,8.92
2023-02-18T19:49:08.811Z,8.93
2023-02-18T19:51:42.061Z,8.89
2023-02-18T19:54:15.499Z,8.89
2023-02-18T19:56:50.265Z,8.87
2023-02-18T19:59:23.854Z,8.86
2023-02-18T20:01:57.077Z,8.87
2023-02-18T20:04:31.932Z,8.85
2023-02-18T20:07:05.244Z,8.85
2023-02-18T20:09:39.481Z,8.82
2023-02-18T20:12:14.989Z,8.82
2023-02-18T20:14:51.053Z,8.79
2023-02-18T20:17:25.011Z,8.70
2023-02-18T20:19:58.251Z,8.70
2023-02-18T20:22:31.542Z,8.68
2023-02-18T20:25:05.316Z,8.57
2023-02-18T20:27:54.489Z,8.73
2023-02-18T20:30:32.986Z,8.63
2023-02-18T20:33:06.567Z,8.65
2023-02-18T20:35:40.062Z,8.66
2023-02-18T20:38:13.603Z,8.61
2023-02-18T20:40:46.735Z,8.63
2023-02-18T20:43:21.261Z,8.65
2023-02-18T20:45:54.588Z,8.61
2023-02-18T20:48:27.753Z,8.54
2023-02-18T20:51:04.908Z,8.51
2023-02-18T20:53:39.243Z,8.56
2023-02-18T20:56:13.160Z,7.90
2023-02-18T20:58:48.538Z,8.43
2023-02-18T21:01:21.781Z,8.42
2023-02-18T21:03:55.189Z,8.36
2023-02-18T21:06:29.414Z,8.34
2023-02-18T21:09:02.950Z,8.24
2023-02-18T21:11:36.597Z,8.27
2023-02-18T21:14:12.241Z,8.26
2023-02-18T21:16:46.099Z,7.85
2023-02-18T21:19:19.528Z,8.20
2023-02-18T21:21:52.774Z,8.19
2023-02-18T21:24:26.144Z,8.16
2023-02-18T21:26:59.769Z,8.14
2023-02-18T21:29:34.416Z,8.10
2023-02-18T21:32:08.144Z,8.07
2023-02-18T21:34:41.471Z,8.10
2023-02-18T21:37:14.699Z,8.01
2023-02-18T21:39:47.911Z,8.00
2023-02-18T21:42:21.405Z,7.96
2023-02-18T21:44:58.090Z,7.90
2023-02-18T21:47:31.372Z,7.85
2023-02-18T21:50:05.103Z,7.89
2023-02-18T21:52:38.371Z,7.81
2023-02-18T21:55:12.119Z,7.84
2023-02-18T21:57:45.368Z,7.85
2023-02-18T22:00:21.017Z,7.80
2023-02-18T22:02:54.753Z,7.69
2023-02-18T22:05:30.185Z,7.69
2023-02-18T22:08:03.451Z,7.71
2023-02-18T22:10:39.726Z,7.73
2023-02-18T22:13:14.069Z,7.66
2023-02-18T22:15:56.963Z,7.64
2023-02-18T22:18:32.048Z,7.61
2023-02-18T22:21:08.885Z,7.60
2023-02-18T22:23:42.828Z,7.55
2023-02-18T22:26:16.428Z,7.59
2023-02-18T22:28:54.420Z,7.62
2023-02-18T22:31:30.509Z,7.47
2023-02-18T22:34:04.285Z,7.54
2023-02-18T22:36:38.257Z,7.57
2023-02-18T22:39:13.122Z,7.61
2023-02-18T22:41:46.473Z,7.63
2023-02-18T22:44:20.412Z,7.54
2023-02-18T22:46:56.242Z,7.55
2023-02-18T22:49:29.619Z,7.41
2023-02-18T22:52:02.952Z,7.38
2023-02-18T22:54:36.656Z,7.38
2023-02-18T22:57:09.920Z,7.40
2023-02-18T22:59:43.233Z,7.38
2023-02-18T23:02:17.725Z,7.39
2023-02-18T23:04:50.925Z,7.38
2023-02-18T23:07:24.747Z,7.09
2023-02-18T23:09:58.229Z,7.37
2023-02-18T23:12:32.746Z,7.38
2023-02-18T23:15:06.481Z,7.40
2023-02-18T23:17:41.380Z,7.41
2023-02-18T23:20:14.729Z,7.35
2023-02-18T23:22:48.315Z,7.27
2023-02-18T23:25:21.584Z,7.32
2023-02-18T23:27:55.007Z,7.31
2023-02-18T23:30:28.968Z,7.30
2023-02-18T23:33:03.679Z,7.24
2023-02-18T23:35:36.889Z,7.01
2023-02-18T23:38:10.496Z,7.09
2023-02-18T23:40:43.708Z,7.15
2023-02-18T23:43:17.109Z,6.80
2023-02-18T23:45:50.658Z,7.21
2023-02-18T23:48:25.610Z,7.20
2023-02-18T23:51:02.394Z,7.12
2023-02-18T23:53:38.233Z,7.10
2023-02-18T23:56:14.928Z,7.12
2023-02-18T23:58:52.308Z,7.03
